Terminal Aerodrome Forecast
Issued by NWS

Home | Current Version | Previous Version | Text Only | Print | Product List | Glossary On
Versions: 1 2 3 4 5 6 7 8 9 10 11 12 13
104
FTUS43 KMQT 291128
TAFSAW
TAF
KSAW 291128Z 2912/3012 VRB03KT P6SM BKN080
     FM291500 00000KT P6SM SCT100
     FM291900 04010KT P6SM FEW100
     FM300100 01003KT P6SM SKC=

USA.gov is the U.S. government's official web portal to all federal, state and local government web resources and services.